Time;durP1;ratioP1;P1;durP2;ratioP2;P2;SDS_P1;SDS_P2;PMS_P1;PMS_P2;Temp;Humidity;BMP_temperature;BMP_pressure;BME280_temperature;BME280_humidity;BME280_pressure;Samples;Min_cycle;Max_cycle;Signal;HPM_P1;HPM_P2
2023/07/18 00:01:24;;;;;;;4.70;3.55;;;;;;;21.93;65.39;99794.94;5074047;28;20028;-86
2023/07/18 00:03:49;;;;;;;9.75;3.78;;;;;;;21.94;65.80;99787.81;5073770;28;20070;-86
2023/07/18 00:06:17;;;;;;;5.72;4.07;;;;;;;22.00;66.79;99794.38;5073487;28;20474;-86
2023/07/18 00:08:43;;;;;;;5.25;3.88;;;;;;;22.10;67.11;99808.47;5072519;28;20021;-86
2023/07/18 00:11:08;;;;;;;4.38;3.60;;;;;;;21.72;67.32;99773.03;5073485;28;20020;-86
2023/07/18 00:13:33;;;;;;;6.07;3.42;;;;;;;21.98;68.82;99823.69;5073660;28;20032;-86
2023/07/18 00:15:59;;;;;;;3.65;3.30;;;;;;;22.05;69.89;99846.03;5071874;28;20021;-86
2023/07/18 00:18:24;;;;;;;6.68;3.38;;;;;;;21.81;70.64;99790.75;5073451;28;20032;-86
2023/07/18 00:20:50;;;;;;;8.52;3.70;;;;;;;21.83;73.18;99812.66;5073274;28;20025;-86
2023/07/18 00:23:15;;;;;;;4.95;3.50;;;;;;;21.84;73.80;99816.16;5073241;28;20040;-86
2023/07/18 00:25:40;;;;;;;4.18;3.38;;;;;;;21.76;74.60;99816.00;5072061;28;20028;-86
2023/07/18 00:28:06;;;;;;;6.15;4.13;;;;;;;21.65;75.43;99824.91;5071824;28;20029;-86
2023/07/18 00:30:31;;;;;;;5.82;3.60;;;;;;;21.46;76.03;99823.09;5073145;28;20017;-86
2023/07/18 00:32:57;;;;;;;4.47;3.55;;;;;;;21.45;76.02;99863.81;5071825;28;20051;-86
2023/07/18 00:35:23;;;;;;;4.90;3.65;;;;;;;21.31;75.18;99861.50;5088400;28;20022;-86
2023/07/18 00:37:49;;;;;;;3.95;3.55;;;;;;;21.17;74.86;99875.97;5071846;28;20460;-86
2023/07/18 00:40:14;;;;;;;4.25;3.30;;;;;;;20.95;74.80;99868.22;5072791;28;20494;-86
2023/07/18 00:42:45;;;;;;;5.22;3.60;;;;;;;20.74;75.19;99860.31;5073066;28;20112;-86
2023/07/18 00:45:11;;;;;;;5.90;3.40;;;;;;;20.78;75.40;99878.44;5072882;28;20380;-85
2023/07/18 00:47:41;;;;;;;7.63;3.60;;;;;;;20.61;75.59;99863.16;5071550;28;20107;-85
2023/07/18 00:50:09;;;;;;;4.10;3.38;;;;;;;20.57;76.10;99877.63;5088101;28;20078;-85
2023/07/18 00:52:41;;;;;;;4.63;3.45;;;;;;;20.61;76.56;99901.06;5072884;28;20017;-85
2023/07/18 00:55:11;;;;;;;4.22;3.05;;;;;;;20.60;76.82;99907.28;5072422;28;20427;-85
2023/07/18 00:57:41;;;;;;;5.43;4.18;;;;;;;20.42;77.04;99898.22;5072808;28;20024;-86
2023/07/18 01:00:11;;;;;;;7.65;3.60;;;;;;;20.26;77.30;99881.94;5072490;28;20082;-85
2023/07/18 01:02:37;;;;;;;4.45;3.22;;;;;;;20.23;78.39;99891.00;5072599;28;20032;-86
2023/07/18 01:05:02;;;;;;;6.00;3.42;;;;;;;20.10;78.36;99877.94;5072705;28;20024;-85
2023/07/18 01:07:29;;;;;;;5.28;3.45;;;;;;;20.07;78.67;99894.06;5072675;28;20023;-85
2023/07/18 01:10:11;;;;;;;5.15;3.30;;;;;;;20.05;79.38;99895.97;5072540;28;20035;-85
2023/07/18 01:12:36;;;;;;;6.43;3.17;;;;;;;19.92;79.20;99868.88;5090008;28;20043;-85
2023/07/18 01:15:02;;;;;;;4.32;3.20;;;;;;;20.05;79.46;99905.72;5089683;28;20036;-85
2023/07/18 01:17:27;;;;;;;6.53;3.65;;;;;;;19.83;79.37;99870.47;5090052;28;20132;-85
2023/07/18 01:19:53;;;;;;;4.07;3.22;;;;;;;19.83;79.82;99888.97;5073034;28;20111;-85
2023/07/18 01:22:18;;;;;;;7.03;3.28;;;;;;;19.73;79.91;99881.91;5072731;28;20054;-85
2023/07/18 01:24:43;;;;;;;6.30;3.40;;;;;;;19.78;80.24;99892.97;5090040;28;20036;-85
2023/07/18 01:27:09;;;;;;;5.97;3.33;;;;;;;19.59;80.26;99861.84;5089779;28;20028;-85
2023/07/18 01:29:34;;;;;;;5.18;3.42;;;;;;;19.77;80.54;99886.84;5072751;28;20032;-86
2023/07/18 01:31:59;;;;;;;4.75;3.00;;;;;;;19.68;80.81;99877.84;5072728;28;20028;-85
2023/07/18 01:34:25;;;;;;;5.40;3.55;;;;;;;19.71;80.84;99873.25;5072595;28;20043;-85
2023/07/18 01:36:50;;;;;;;4.50;3.45;;;;;;;19.74;80.74;99888.88;5089737;28;20044;-85
2023/07/18 01:39:15;;;;;;;7.03;3.95;;;;;;;19.65;81.01;99885.19;5089426;28;20040;-85
2023/07/18 01:41:41;;;;;;;4.78;3.25;;;;;;;19.59;81.31;99898.84;5089713;28;20032;-85
2023/07/18 01:44:08;;;;;;;5.78;3.40;;;;;;;19.53;81.72;99897.53;5089397;28;20032;-85
2023/07/18 01:46:33;;;;;;;8.35;3.25;;;;;;;19.37;81.67;99887.34;5089732;28;20032;-85
2023/07/18 01:48:58;;;;;;;4.93;2.90;;;;;;;19.42;81.70;99902.81;5088556;28;20036;-85
2023/07/18 01:51:24;;;;;;;4.95;3.47;;;;;;;19.45;81.71;99921.06;5071761;28;20031;-85
2023/07/18 01:53:49;;;;;;;4.97;3.22;;;;;;;19.35;81.73;99920.97;5089427;28;20032;-85
2023/07/18 01:56:15;;;;;;;5.75;3.60;;;;;;;19.38;81.74;99928.66;5089263;28;20055;-85
2023/07/18 01:58:40;;;;;;;5.50;3.35;;;;;;;19.28;82.22;99926.84;5094896;28;20438;-85
2023/07/18 02:01:05;;;;;;;7.93;3.42;;;;;;;19.24;81.97;99928.88;5096077;28;20110;-85
2023/07/18 02:03:31;;;;;;;4.28;3.10;;;;;;;19.14;82.38;99931.41;5096060;28;20036;-86
2023/07/18 02:05:57;;;;;;;6.75;3.53;;;;;;;19.07;83.08;99930.19;5096292;28;20024;-86
2023/07/18 02:08:22;;;;;;;5.20;2.70;;;;;;;19.05;82.77;99926.84;5095835;28;20048;-86
2023/07/18 02:10:48;;;;;;;7.45;3.75;;;;;;;19.04;82.98;99922.50;5079156;28;20028;-86
2023/07/18 02:13:13;;;;;;;6.85;3.33;;;;;;;19.08;82.99;99933.69;5095973;28;20036;-86
2023/07/18 02:15:38;;;;;;;6.72;3.58;;;;;;;19.06;83.46;99935.59;5096123;28;20023;-85
2023/07/18 02:18:04;;;;;;;5.05;3.42;;;;;;;19.07;83.42;99940.75;5096097;28;20024;-85
2023/07/18 02:20:30;;;;;;;6.80;3.38;;;;;;;18.89;83.63;99913.16;5096270;28;20644;-85
2023/07/18 02:22:56;;;;;;;5.47;3.78;;;;;;;19.02;84.15;99939.44;5096244;28;20078;-85
2023/07/18 02:25:21;;;;;;;4.88;3.20;;;;;;;18.97;84.28;99947.72;5083036;28;20044;-85
2023/07/18 02:27:46;;;;;;;6.88;3.28;;;;;;;18.90;84.08;99946.50;5078190;28;20066;-85
2023/07/18 02:30:13;;;;;;;6.43;3.17;;;;;;;18.87;84.60;99944.91;5077971;28;20059;-85
2023/07/18 02:32:40;;;;;;;6.68;3.33;;;;;;;18.76;85.05;99939.63;5078294;28;20074;-85
2023/07/18 02:35:10;;;;;;;4.68;3.50;;;;;;;18.73;85.01;99936.38;5078378;28;20044;-85
2023/07/18 02:37:35;;;;;;;4.95;3.20;;;;;;;18.61;85.60;99919.66;5078221;28;20060;-85
2023/07/18 02:40:08;;;;;;;4.05;2.80;;;;;;;18.69;85.47;99936.63;5077918;28;20161;-85
2023/07/18 02:42:33;;;;;;;6.57;3.65;;;;;;;18.60;85.36;99920.63;5078163;28;20028;-85
2023/07/18 02:44:59;;;;;;;6.55;3.25;;;;;;;18.74;85.25;99960.00;5078387;28;20464;-85
2023/07/18 02:47:24;;;;;;;4.32;3.00;;;;;;;18.72;85.51;99969.00;5076774;28;20380;-85
2023/07/18 02:49:49;;;;;;;5.85;3.30;;;;;;;18.55;85.78;99946.50;5078233;28;20112;-85
2023/07/18 02:52:15;;;;;;;6.88;3.70;;;;;;;18.45;85.66;99939.25;5077802;28;20392;-85
2023/07/18 02:54:40;;;;;;;5.07;2.92;;;;;;;18.36;86.50;99939.09;5078160;28;20107;-85
2023/07/18 02:57:06;;;;;;;6.35;4.03;;;;;;;18.43;86.40;99958.81;5078257;28;20033;-85
2023/07/18 02:59:31;;;;;;;4.88;3.47;;;;;;;18.31;86.35;99950.00;5077834;28;20108;-85
2023/07/18 03:01:59;;;;;;;6.30;3.33;;;;;;;18.30;86.14;99945.69;5078194;28;20020;-85
2023/07/18 03:04:26;;;;;;;5.22;3.53;;;;;;;18.29;86.28;99957.19;5077802;28;20111;-85
2023/07/18 03:06:52;;;;;;;5.38;2.78;;;;;;;18.35;86.62;99972.56;5076703;28;20031;-85
2023/07/18 03:09:21;;;;;;;6.38;3.63;;;;;;;18.27;86.46;99977.53;5075082;28;20029;-85
2023/07/18 03:11:47;;;;;;;5.13;3.10;;;;;;;18.17;86.37;99968.63;5074599;28;20029;-85
2023/07/18 03:14:12;;;;;;;4.70;3.00;;;;;;;18.24;86.67;99984.84;5074465;28;20028;-85
2023/07/18 03:16:38;;;;;;;4.53;3.42;;;;;;;18.08;86.38;99964.03;5074670;28;20017;-85
2023/07/18 03:19:05;;;;;;;6.35;3.60;;;;;;;18.19;86.15;99987.81;5074797;28;20028;-85
2023/07/18 03:21:30;;;;;;;5.07;3.67;;;;;;;18.11;86.90;99983.09;5074318;28;20032;-85
2023/07/18 03:23:55;;;;;;;6.00;3.75;;;;;;;18.05;86.89;99986.19;5074576;28;20062;-85
2023/07/18 03:26:21;;;;;;;5.15;3.30;;;;;;;18.05;86.99;99988.81;5074118;28;20032;-85
2023/07/18 03:28:46;;;;;;;4.28;3.22;;;;;;;18.03;87.24;99982.81;5073364;28;20044;-85
2023/07/18 03:31:11;;;;;;;3.47;3.10;;;;;;;18.08;87.55;99998.31;5074316;28;20031;-85
2023/07/18 03:33:37;;;;;;;7.03;3.60;;;;;;;18.12;87.38;100005.03;5074354;28;20479;-85
2023/07/18 03:36:04;;;;;;;3.97;2.95;;;;;;;17.91;87.81;99981.91;5074668;28;20108;-85
2023/07/18 03:38:30;;;;;;;5.38;3.65;;;;;;;17.99;87.94;100001.59;5074160;28;20496;-85
2023/07/18 03:40:57;;;;;;;6.45;3.75;;;;;;;18.00;88.17;99998.03;5073943;28;20055;-85
2023/07/18 03:43:22;;;;;;;5.22;3.90;;;;;;;17.99;88.28;99996.31;5074042;28;20025;-85
2023/07/18 03:45:49;;;;;;;5.10;3.63;;;;;;;18.02;88.63;100004.84;5074021;28;20132;-85
2023/07/18 03:48:14;;;;;;;7.78;3.92;;;;;;;18.05;88.27;100009.91;5073959;28;20472;-85
2023/07/18 03:50:39;;;;;;;6.28;3.70;;;;;;;18.06;88.47;100014.22;5074195;28;20063;-85
2023/07/18 03:53:05;;;;;;;8.00;3.50;;;;;;;18.09;88.36;100013.16;5074025;28;20108;-85
2023/07/18 03:55:30;;;;;;;6.78;3.45;;;;;;;18.14;88.53;100022.41;5073546;28;20028;-85
2023/07/18 03:57:56;;;;;;;7.38;3.58;;;;;;;18.18;88.15;100023.88;5074198;28;20107;-85
2023/07/18 04:00:21;;;;;;;5.47;3.22;;;;;;;18.19;88.24;100027.34;5092073;28;20398;-86
2023/07/18 04:02:48;;;;;;;5.70;3.40;;;;;;;18.25;88.31;100029.56;5094730;28;20032;-85
2023/07/18 04:05:15;;;;;;;5.05;3.30;;;;;;;18.12;88.46;100016.44;5092692;28;20036;-85
2023/07/18 04:07:41;;;;;;;5.43;3.45;;;;;;;18.20;87.83;100022.00;5093985;28;20027;-85
2023/07/18 04:10:07;;;;;;;5.53;3.45;;;;;;;18.24;87.82;100013.84;5093974;28;20032;-85
2023/07/18 04:12:32;;;;;;;5.03;4.10;;;;;;;18.52;87.62;100047.81;5093983;28;20043;-85
2023/07/18 04:14:58;;;;;;;5.03;3.30;;;;;;;18.65;87.32;100037.19;5093995;28;20035;-85
2023/07/18 04:17:24;;;;;;;6.95;3.50;;;;;;;18.81;86.83;100016.66;5093855;28;20028;-85
2023/07/18 04:19:51;;;;;;;4.78;3.47;;;;;;;19.58;84.45;100056.53;5093624;28;20028;-85
2023/07/18 04:22:17;;;;;;;7.10;3.38;;;;;;;20.47;80.18;100028.31;5093411;28;20102;-85
2023/07/18 04:24:43;;;;;;;6.40;3.75;;;;;;;21.95;74.81;100032.63;5093765;28;20083;-86
2023/07/18 04:27:08;;;;;;;4.55;3.13;;;;;;;23.67;69.49;100039.06;5092529;28;20024;-86
2023/07/18 04:29:33;;;;;;;5.18;3.15;;;;;;;25.01;65.46;100041.00;5093916;28;20086;-86
2023/07/18 04:31:59;;;;;;;5.10;3.67;;;;;;;25.47;63.16;100039.84;5093600;28;20051;-86
2023/07/18 04:34:24;;;;;;;4.53;3.30;;;;;;;25.22;62.65;100046.03;5093376;28;20115;-86
2023/07/18 04:36:49;;;;;;;5.10;3.63;;;;;;;24.69;63.77;100054.88;5093482;28;20051;-86
2023/07/18 04:39:15;;;;;;;5.40;3.30;;;;;;;24.22;65.15;100061.19;5092829;28;20032;-86
2023/07/18 04:41:40;;;;;;;4.18;3.10;;;;;;;23.89;65.40;100055.53;5093287;28;20028;-86
2023/07/18 04:44:05;;;;;;;3.10;2.80;;;;;;;23.95;65.08;100035.47;5093241;28;20039;-87
2023/07/18 04:46:31;;;;;;;6.57;3.47;;;;;;;24.78;63.03;100060.16;5092945;28;20022;-86
2023/07/18 04:48:56;;;;;;;4.15;3.10;;;;;;;25.93;60.32;100048.47;5091870;28;20032;-86
2023/07/18 04:51:21;;;;;;;5.20;3.40;;;;;;;27.54;57.08;100069.34;5091599;28;20020;-87
2023/07/18 04:53:47;;;;;;;5.03;3.42;;;;;;;28.34;55.00;100053.16;5093206;28;20392;-87
2023/07/18 04:56:12;;;;;;;5.40;3.25;;;;;;;28.53;54.56;100077.88;5093320;28;20038;-87
2023/07/18 04:58:37;;;;;;;4.20;3.10;;;;;;;27.77;55.30;100052.56;5093095;28;20025;-87
2023/07/18 05:01:03;;;;;;;4.53;2.78;;;;;;;27.16;56.68;100065.56;5093126;28;20467;-87
2023/07/18 05:03:28;;;;;;;4.00;2.92;;;;;;;26.57;57.70;100063.00;5092754;28;20032;-87
2023/07/18 05:05:55;;;;;;;6.00;3.83;;;;;;;26.21;58.57;100042.84;5091551;28;20535;-87
2023/07/18 05:08:21;;;;;;;6.22;3.35;;;;;;;26.56;58.17;100065.84;5092691;28;20043;-87
2023/07/18 05:10:46;;;;;;;5.75;3.33;;;;;;;27.15;56.77;100041.69;5092805;28;20024;-87
2023/07/18 05:13:11;;;;;;;6.20;3.13;;;;;;;28.70;53.70;100083.97;5092645;28;20031;-87
2023/07/18 05:15:37;;;;;;;4.22;3.30;;;;;;;29.72;51.25;100062.94;5092443;28;20020;-87
2023/07/18 05:18:03;;;;;;;4.57;3.58;;;;;;;30.03;50.97;100073.47;5092703;28;20070;-87
2023/07/18 05:20:29;;;;;;;4.72;3.03;;;;;;;29.44;51.86;100068.09;5092371;28;20097;-87
2023/07/18 05:22:54;;;;;;;3.22;2.58;;;;;;;28.76;52.77;100081.38;5092706;28;20028;-87
2023/07/18 05:25:20;;;;;;;3.97;2.78;;;;;;;28.20;54.32;100101.28;5092229;28;20047;-87
2023/07/18 05:27:45;;;;;;;3.00;2.67;;;;;;;27.67;54.67;100074.16;5091405;28;20040;-87
2023/07/18 05:30:16;;;;;;;5.65;2.60;;;;;;;27.77;54.71;100082.03;5092763;28;20478;-88
2023/07/18 05:32:42;;;;;;;;;;;;;;;28.48;53.81;100104.34;5092166;28;20038;-88
2023/07/18 05:35:13;;;;;;;4.53;3.03;;;;;;;29.53;51.34;100081.22;5092411;28;19920;-87
2023/07/18 05:37:40;;;;;;;5.50;3.00;;;;;;;29.88;51.36;100086.09;5090654;28;20028;-88
2023/07/18 05:40:09;;;;;;;3.20;2.75;;;;;;;29.83;50.33;100092.00;5092075;28;20510;-87
2023/07/18 05:42:35;;;;;;;4.00;2.65;;;;;;;29.01;50.96;100060.59;5090896;28;20061;-87
2023/07/18 05:45:00;;;;;;;3.50;3.03;;;;;;;28.50;52.51;100076.38;5092623;28;20067;-87
2023/07/18 05:47:25;;;;;;;4.05;2.85;;;;;;;27.96;53.75;100070.09;5092339;28;20078;-87
2023/07/18 05:49:51;;;;;;;5.45;3.30;;;;;;;27.63;54.04;100072.84;5092117;28;20047;-87
2023/07/18 05:52:16;;;;;;;4.10;3.00;;;;;;;27.42;54.47;100077.91;5091997;28;20024;-87
2023/07/18 05:54:41;;;;;;;3.20;2.67;;;;;;;27.26;54.75;100068.06;5091885;28;20459;-87
2023/07/18 05:57:06;;;;;;;3.85;2.80;;;;;;;27.24;54.84;100068.25;5092050;28;20019;-87
2023/07/18 05:59:32;;;;;;;3.70;3.03;;;;;;;27.28;54.73;100087.47;5091910;28;20024;-87
2023/07/18 06:01:57;;;;;;;3.40;3.10;;;;;;;27.19;54.78;100080.47;5092054;28;20089;-87
2023/07/18 06:04:23;;;;;;;3.92;2.45;;;;;;;27.29;55.37;100099.81;5091720;28;20032;-87
2023/07/18 06:06:48;;;;;;;4.22;3.20;;;;;;;27.14;55.53;100075.63;5092073;28;20519;-87
2023/07/18 06:09:14;;;;;;;4.30;2.95;;;;;;;27.24;55.37;100072.75;5092302;28;20035;-87
2023/07/18 06:11:39;;;;;;;3.83;3.03;;;;;;;27.63;54.86;100088.06;5091853;28;20024;-87
2023/07/18 06:14:05;;;;;;;3.28;2.95;;;;;;;27.95;53.69;100100.56;5091942;28;20063;-87
2023/07/18 06:16:31;;;;;;;4.93;2.60;;;;;;;27.87;53.00;100084.53;5091735;28;20028;-87
2023/07/18 06:18:57;;;;;;;3.90;2.70;;;;;;;27.65;52.89;100091.41;5091778;28;20438;-87
2023/07/18 06:21:26;;;;;;;4.25;2.83;;;;;;;27.46;53.20;100082.75;5091620;28;20103;-86
2023/07/18 06:23:51;;;;;;;4.47;2.83;;;;;;;27.61;53.95;100083.72;5091982;28;20028;-86
2023/07/18 06:26:16;;;;;;;6.03;2.90;;;;;;;27.95;53.47;100103.22;5090427;28;20070;-87
2023/07/18 06:28:42;;;;;;;3.67;2.25;;;;;;;28.16;52.98;100092.78;5091658;28;20032;-87
2023/07/18 06:31:07;;;;;;;4.72;2.90;;;;;;;28.25;52.11;100104.28;5091837;28;20024;-87
2023/07/18 06:33:32;;;;;;;3.08;2.67;;;;;;;28.34;52.16;100106.72;5091688;28;20028;-87
2023/07/18 06:35:58;;;;;;;3.88;2.90;;;;;;;28.60;52.51;100087.69;5091669;28;20062;-87
2023/07/18 06:38:24;;;;;;;4.72;2.58;;;;;;;29.06;51.57;100094.91;5090504;28;20032;-88
2023/07/18 06:40:50;;;;;;;5.05;2.70;;;;;;;29.69;50.77;100091.00;5091631;28;20044;-87
2023/07/18 06:43:16;;;;;;;3.13;2.63;;;;;;;30.64;49.05;100095.50;5092173;28;20515;-87
2023/07/18 06:45:46;;;;;;;3.13;2.40;;;;;;;31.99;46.97;100106.16;5095401;28;20105;-87
2023/07/18 06:48:14;;;;;;;3.50;2.90;;;;;;;33.35;45.26;100099.84;5095523;28;20016;-87
2023/07/18 06:50:47;;;;;;;4.85;2.65;;;;;;;33.76;44.38;100103.13;5095153;28;20488;-87
2023/07/18 06:53:15;;;;;;;3.25;2.90;;;;;;;33.61;44.54;100097.13;5095568;28;20026;-87
2023/07/18 06:55:41;;;;;;;3.58;2.53;;;;;;;33.32;44.34;100119.16;5093742;28;20035;-87
2023/07/18 06:58:09;;;;;;;3.10;2.60;;;;;;;33.64;44.03;100107.53;5095114;28;20456;-87
2023/07/18 07:00:35;;;;;;;2.72;2.40;;;;;;;33.46;43.67;100113.59;5094864;28;20162;-86
2023/07/18 07:03:00;;;;;;;3.03;2.47;;;;;;;34.29;43.43;100107.53;5095139;28;20102;-87
2023/07/18 07:05:25;;;;;;;4.22;2.63;;;;;;;35.18;42.34;100097.63;5095131;28;20107;-86
2023/07/18 07:07:52;;;;;;;3.17;2.40;;;;;;;35.72;42.15;100088.81;5095475;28;20028;-82
2023/07/18 07:10:18;;;;;;;3.65;2.72;;;;;;;36.27;41.29;100106.13;5093759;28;20031;-89
2023/07/18 07:12:43;;;;;;;5.75;2.70;;;;;;;36.68;40.88;100102.66;5093468;28;20024;-91
2023/07/18 07:15:09;;;;;;;3.53;2.90;;;;;;;37.54;40.16;100116.75;5093708;28;20383;-89
2023/07/18 07:17:34;;;;;;;3.78;2.40;;;;;;;38.99;39.07;100114.78;5094418;28;20024;-89
2023/07/18 07:20:00;;;;;;;3.67;2.75;;;;;;;39.69;37.69;100116.16;5095108;28;20032;-89
2023/07/18 07:22:27;;;;;;;3.30;2.63;;;;;;;40.49;37.80;100103.78;5094769;28;20487;-89
2023/07/18 07:24:53;;;;;;;5.43;3.10;;;;;;;41.66;36.97;100096.56;5093594;28;20024;-89
2023/07/18 07:27:19;;;;;;;2.83;2.50;;;;;;;42.68;36.03;100110.63;5094797;28;20028;-89
2023/07/18 07:29:44;;;;;;;4.65;2.78;;;;;;;43.19;35.44;100118.03;5094553;28;20040;-89
2023/07/18 07:32:10;;;;;;;3.22;2.67;;;;;;;43.01;35.34;100086.50;5093117;28;20024;-88
2023/07/18 07:34:35;;;;;;;2.88;2.67;;;;;;;43.71;35.00;100098.47;5094488;28;20028;-89
2023/07/18 07:37:00;;;;;;;3.13;2.85;;;;;;;44.17;35.48;100105.72;5094551;28;20046;-89
2023/07/18 07:39:26;;;;;;;3.67;2.75;;;;;;;44.73;34.89;100095.19;5094242;28;20391;-89
2023/07/18 07:41:51;;;;;;;2.88;2.67;;;;;;;45.29;34.41;100104.88;5094789;28;20062;-89
2023/07/18 07:44:16;;;;;;;3.22;2.83;;;;;;;44.92;33.75;100091.72;5094354;28;20035;-89
2023/07/18 07:46:42;;;;;;;3.78;2.70;;;;;;;44.91;34.30;100099.16;5093985;28;20514;-88
2023/07/18 07:49:07;;;;;;;2.80;2.60;;;;;;;44.77;33.51;100095.44;5094441;28;20052;-89
2023/07/18 07:51:33;;;;;;;2.95;2.75;;;;;;;44.03;33.98;100089.84;5094030;28;20020;-88
2023/07/18 07:53:59;;;;;;;3.03;2.80;;;;;;;43.58;34.01;100088.09;5094206;28;20430;-89
2023/07/18 07:56:24;;;;;;;3.22;2.38;;;;;;;44.19;34.36;100085.09;5093384;28;20075;-89
2023/07/18 07:58:49;;;;;;;2.83;2.63;;;;;;;44.25;34.23;100097.72;5093935;28;20020;-89
2023/07/18 08:01:15;;;;;;;2.55;2.35;;;;;;;44.37;33.38;100091.03;5094013;28;20039;-89
2023/07/18 08:03:40;;;;;;;2.67;2.47;;;;;;;44.36;33.13;100098.47;5093580;28;20122;-89
2023/07/18 08:06:06;;;;;;;2.50;2.30;;;;;;;44.55;32.88;100093.13;5092767;28;20490;-88
2023/07/18 08:08:31;;;;;;;4.10;2.63;;;;;;;44.15;33.36;100100.47;5093743;28;20403;-89
2023/07/18 08:10:56;;;;;;;3.47;2.38;;;;;;;44.44;32.99;100095.13;5093866;28;20024;-89
2023/07/18 08:13:22;;;;;;;2.47;2.28;;;;;;;44.45;33.69;100102.25;5093787;28;20460;-89
2023/07/18 08:15:47;;;;;;;2.33;2.13;;;;;;;43.82;34.04;100097.31;5093408;28;20063;-89
2023/07/18 08:18:12;;;;;;;2.63;2.42;;;;;;;42.95;34.04;100099.41;5093710;28;20048;-88
2023/07/18 08:20:38;;;;;;;3.55;2.30;;;;;;;41.29;34.76;100081.00;5092320;28;20467;-88
2023/07/18 08:23:03;;;;;;;2.50;2.30;;;;;;;39.68;35.67;100077.16;5093666;28;20020;-88
2023/07/18 08:25:29;;;;;;;2.13;1.92;;;;;;;38.19;36.82;100065.69;5093433;28;20056;-88
2023/07/18 08:27:54;;;;;;;2.67;2.10;;;;;;;36.89;37.95;100058.69;5092255;28;20115;-88
2023/07/18 08:30:20;;;;;;;2.25;2.05;;;;;;;35.89;38.25;100080.91;5093124;28;20162;-88
2023/07/18 08:32:45;;;;;;;2.83;2.20;;;;;;;34.87;38.92;100066.84;5092767;28;20074;-88
2023/07/18 08:35:11;;;;;;;2.65;2.45;;;;;;;34.16;39.94;100078.69;5093840;28;20036;-88
2023/07/18 08:37:36;;;;;;;2.40;2.20;;;;;;;33.38;40.58;100048.97;5093068;28;20027;-88
2023/07/18 08:40:05;;;;;;;2.83;2.35;;;;;;;32.92;40.80;100057.94;5093578;28;20054;-88
2023/07/18 08:42:31;;;;;;;2.83;2.05;;;;;;;32.42;41.34;100062.81;5092963;28;20028;-87
2023/07/18 08:44:57;;;;;;;2.70;2.10;;;;;;;31.95;42.01;100056.41;5093262;28;20028;-87
2023/07/18 08:47:25;;;;;;;1.92;1.80;;;;;;;31.58;42.28;100057.63;5092146;28;20050;-88
2023/07/18 08:49:51;;;;;;;1.77;1.67;;;;;;;31.12;41.67;100050.03;5093070;28;20028;-88
2023/07/18 08:52:16;;;;;;;2.72;2.10;;;;;;;30.58;42.03;100029.03;5091512;28;20024;-87
2023/07/18 08:54:42;;;;;;;2.25;2.05;;;;;;;30.32;42.56;100040.38;5092869;28;20024;-87
2023/07/18 08:57:07;;;;;;;5.05;2.65;;;;;;;30.02;44.25;100036.88;5093296;28;20020;-87
2023/07/18 08:59:33;;;;;;;3.22;2.00;;;;;;;29.58;44.36;100038.63;5092848;28;20289;-87
2023/07/18 09:01:58;;;;;;;3.30;2.00;;;;;;;29.02;45.10;100023.88;5092832;28;20438;-87
2023/07/18 09:04:24;;;;;;;3.15;2.35;;;;;;;29.04;46.19;100044.16;5093266;28;20024;-87
2023/07/18 09:06:56;;;;;;;3.63;2.25;;;;;;;28.87;46.96;100001.56;5091969;28;20024;-87
2023/07/18 09:09:23;;;;;;;2.45;2.10;;;;;;;29.04;46.55;100011.16;5091417;28;20070;-87
2023/07/18 09:12:00;;;;;;;2.40;2.20;;;;;;;29.19;46.13;100033.44;5092368;28;20028;-87
2023/07/18 09:14:30;;;;;;;3.55;2.50;;;;;;;28.96;46.08;100013.88;5091365;28;20206;-87
2023/07/18 09:17:00;;;;;;;3.33;2.27;;;;;;;28.88;47.16;100020.13;5092671;28;20023;-87
2023/07/18 09:19:42;;;;;;;2.47;2.25;;;;;;;28.96;47.45;100032.66;5092711;28;20254;-87
2023/07/18 09:22:12;;;;;;;2.75;2.20;;;;;;;28.85;46.61;100015.97;5092781;28;20484;-87
2023/07/18 09:24:39;;;;;;;4.70;2.10;;;;;;;28.73;46.73;99990.59;5092155;28;20494;-87
2023/07/18 09:27:07;;;;;;;4.00;2.30;;;;;;;28.82;46.72;100016.34;5092577;28;20024;-87
2023/07/18 09:29:32;;;;;;;2.53;2.05;;;;;;;28.88;46.89;100032.72;5090912;28;20031;-87
2023/07/18 09:31:58;;;;;;;2.45;1.83;;;;;;;28.63;46.68;99992.69;5091159;28;20024;-87
2023/07/18 09:34:26;;;;;;;2.20;2.00;;;;;;;28.64;46.60;99991.69;5092328;28;20056;-88
2023/07/18 09:36:59;;;;;;;2.30;2.10;;;;;;;28.69;46.48;100012.56;5092611;28;20056;-87
2023/07/18 09:39:25;;;;;;;2.92;2.08;;;;;;;28.59;46.03;100012.84;5092018;28;20110;-87
2023/07/18 09:41:51;;;;;;;2.30;1.83;;;;;;;28.55;46.17;100020.38;5069113;28;20043;-88
2023/07/18 09:44:18;;;;;;;2.50;2.00;;;;;;;28.34;45.75;99985.34;5069590;28;20047;-88
2023/07/18 09:46:44;;;;;;;2.13;1.80;;;;;;;28.46;46.12;100013.44;5052426;28;20033;-88
2023/07/18 09:49:09;;;;;;;4.68;2.22;;;;;;;28.40;46.05;100003.44;5052677;28;20039;-87
2023/07/18 09:51:37;;;;;;;2.20;2.00;;;;;;;28.30;45.74;99986.72;5069221;28;20044;-87
2023/07/18 09:54:05;;;;;;;3.00;1.90;;;;;;;28.28;45.82;99997.63;5069400;28;20045;-87
2023/07/18 09:56:33;;;;;;;4.00;2.38;;;;;;;28.12;46.03;99997.72;5069506;28;20036;-87
2023/07/18 09:59:04;;;;;;;3.22;2.53;;;;;;;28.17;47.00;99989.16;5052463;28;20035;-88
2023/07/18 10:01:32;;;;;;;3.63;2.63;;;;;;;28.07;47.51;99967.97;5069605;28;20047;-87
2023/07/18 10:03:58;;;;;;;3.42;2.30;;;;;;;28.16;47.83;99976.78;5069319;28;20476;-87
2023/07/18 10:06:25;;;;;;;2.50;2.17;;;;;;;28.26;47.15;99985.41;5069344;28;20488;-88
2023/07/18 10:08:52;;;;;;;2.38;2.05;;;;;;;28.12;46.13;99983.50;5069189;28;20116;-88
2023/07/18 10:11:17;;;;;;;4.05;2.00;;;;;;;28.10;46.07;99976.44;5069076;28;20032;-87
2023/07/18 10:13:55;;;;;;;4.25;2.08;;;;;;;27.99;47.10;99982.22;5088333;28;20040;-87
2023/07/18 10:16:21;;;;;;;2.20;2.00;;;;;;;27.85;47.27;99957.03;5092090;28;20365;-87
2023/07/18 10:18:49;;;;;;;2.85;1.95;;;;;;;27.96;46.96;99974.53;5093464;28;20494;-87
2023/07/18 10:21:35;;;;;;;2.72;2.15;;;;;;;28.04;46.73;99974.50;5096962;28;20028;-87
2023/07/18 10:24:23;;;;;;;2.03;1.77;;;;;;;27.98;47.10;99975.22;5095719;28;20040;-87
2023/07/18 10:26:52;;;;;;;3.58;2.75;;;;;;;27.83;46.72;99934.13;5095627;28;20146;-87
2023/07/18 10:29:19;;;;;;;3.20;2.15;;;;;;;28.01;48.03;99961.44;5095609;28;20035;-87
2023/07/18 10:31:45;;;;;;;2.38;2.15;;;;;;;28.07;47.68;99955.41;5095835;28;20031;-87
2023/07/18 10:34:17;;;;;;;6.57;2.35;;;;;;;28.19;47.09;99963.88;5094634;28;20476;-87
2023/07/18 10:36:56;;;;;;;3.08;2.35;;;;;;;28.26;46.28;99967.47;5095489;28;20028;-87
2023/07/18 10:39:54;;;;;;;4.32;2.17;;;;;;;28.33;45.92;99964.94;5095526;28;20062;-87
2023/07/18 10:42:26;;;;;;;3.63;1.95;;;;;;;28.25;45.47;99933.69;5093476;28;20653;-88
2023/07/18 10:44:55;;;;;;;2.03;1.83;;;;;;;28.37;45.49;99947.53;5092841;28;20048;-87
2023/07/18 10:47:21;;;;;;;3.83;2.10;;;;;;;28.29;46.02;99928.81;5093386;28;20158;-87
2023/07/18 10:49:49;;;;;;;2.92;2.33;;;;;;;28.30;45.79;99942.00;5092751;28;20111;-87
2023/07/18 10:52:19;;;;;;;3.05;1.90;;;;;;;28.11;45.72;99907.69;5075634;28;20028;-87
2023/07/18 10:54:57;;;;;;;2.97;1.90;;;;;;;28.14;46.17;99901.94;5092813;28;20050;-87
2023/07/18 10:57:24;;;;;;;2.75;2.03;;;;;;;28.22;46.09;99887.66;5092946;28;20032;-87
2023/07/18 10:59:50;;;;;;;2.60;2.10;;;;;;;28.49;45.08;99918.47;5092749;28;20043;-87
2023/07/18 11:02:16;;;;;;;4.22;1.95;;;;;;;28.52;46.16;99923.44;5092907;28;20035;-88
2023/07/18 11:04:41;;;;;;;3.50;2.33;;;;;;;28.56;45.01;99916.72;5075312;28;20050;-87
2023/07/18 11:07:09;;;;;;;4.85;2.08;;;;;;;28.45;44.89;99899.25;5075697;28;20364;-87
2023/07/18 11:09:35;;;;;;;2.40;2.10;;;;;;;28.61;44.82;99906.28;5075600;28;20031;-87
2023/07/18 11:12:00;;;;;;;2.28;1.80;;;;;;;28.57;45.13;99899.63;5092282;28;20028;-87
2023/07/18 11:14:37;;;;;;;2.75;2.03;;;;;;;28.57;44.42;99910.34;5092544;28;20039;-87
2023/07/18 11:17:02;;;;;;;4.03;1.80;;;;;;;28.43;44.02;99887.03;5092546;28;20032;-87
2023/07/18 11:19:29;;;;;;;2.90;2.10;;;;;;;28.48;44.40;99898.03;5094829;28;20046;-87
2023/07/18 11:21:54;;;;;;;3.60;2.00;;;;;;;28.48;44.61;99898.84;5094791;28;20078;-87
2023/07/18 11:24:23;;;;;;;2.15;1.95;;;;;;;28.48;44.63;99901.53;5093696;28;20123;-87
2023/07/18 11:27:15;;;;;;;1.90;1.70;;;;;;;28.41;44.75;99881.03;5094601;28;20028;-87